createdAt,value
2018-04-26T00:00:14.240Z,22.35
2018-04-26T00:00:45.842Z,22.35
2018-04-26T00:01:17.430Z,22.35
2018-04-26T00:01:49.039Z,22.34
2018-04-26T00:02:20.649Z,22.34
2018-04-26T00:02:52.268Z,22.33
2018-04-26T00:03:23.844Z,22.32
2018-04-26T00:03:55.450Z,22.33
2018-04-26T00:04:27.038Z,22.32
2018-04-26T00:04:58.662Z,22.32
2018-04-26T00:05:30.261Z,22.31
2018-04-26T00:06:01.847Z,22.32
2018-04-26T00:06:33.457Z,22.31
2018-04-26T00:07:05.044Z,22.32
2018-04-26T00:07:36.635Z,22.32
2018-04-26T00:08:08.242Z,22.32
2018-04-26T00:08:39.850Z,22.32
2018-04-26T00:09:11.479Z,22.31
2018-04-26T00:09:43.053Z,22.31
2018-04-26T00:10:14.665Z,22.31
2018-04-26T00:10:46.306Z,22.30
2018-04-26T00:11:17.898Z,22.31
2018-04-26T00:11:49.469Z,22.30
2018-04-26T00:12:21.045Z,22.30
2018-04-26T00:12:52.645Z,22.29
2018-04-26T00:13:24.238Z,22.29
2018-04-26T00:13:55.844Z,22.29
2018-04-26T00:14:27.435Z,22.28
2018-04-26T00:14:59.032Z,22.27
2018-04-26T00:15:30.640Z,22.29
2018-04-26T00:16:02.271Z,22.28
2018-04-26T00:16:33.846Z,22.28
2018-04-26T00:17:05.438Z,22.27
2018-04-26T00:17:37.048Z,22.21
2018-04-26T00:18:08.690Z,22.27
2018-04-26T00:18:40.299Z,22.27
2018-04-26T00:19:11.906Z,22.27
2018-04-26T00:19:43.484Z,22.27
2018-04-26T00:20:15.092Z,22.27
2018-04-26T00:20:46.678Z,22.27
2018-04-26T00:21:18.281Z,22.26
2018-04-26T00:21:49.867Z,22.26
2018-04-26T00:22:21.530Z,22.26
2018-04-26T00:22:53.119Z,22.26
2018-04-26T00:23:24.721Z,22.26
2018-04-26T00:23:56.310Z,22.26
2018-04-26T00:24:27.926Z,22.25
2018-04-26T00:24:59.510Z,22.25
2018-04-26T00:25:31.113Z,22.25
2018-04-26T00:26:02.702Z,22.24
2018-04-26T00:26:34.293Z,22.24
2018-04-26T00:27:05.910Z,22.24
2018-04-26T00:27:37.577Z,22.23
2018-04-26T00:28:09.166Z,22.24
2018-04-26T00:28:40.750Z,22.24
2018-04-26T00:29:12.344Z,22.24
2018-04-26T00:29:43.940Z,22.24
2018-04-26T00:30:15.524Z,22.24
2018-04-26T00:30:47.111Z,22.23
2018-04-26T00:31:18.698Z,22.24
2018-04-26T00:31:50.275Z,22.23
2018-04-26T00:32:21.886Z,22.23
2018-04-26T00:32:53.519Z,22.21
2018-04-26T00:33:25.122Z,22.23
2018-04-26T00:33:56.720Z,22.23
2018-04-26T00:34:28.311Z,22.22
2018-04-26T00:34:59.898Z,22.22
2018-04-26T00:35:31.468Z,22.22
2018-04-26T00:36:03.069Z,22.22
2018-04-26T00:36:34.685Z,22.21
2018-04-26T00:37:06.295Z,22.21
2018-04-26T00:37:37.885Z,22.20
2018-04-26T00:38:09.457Z,22.20
2018-04-26T00:38:41.067Z,22.20
2018-04-26T00:39:12.644Z,22.19
2018-04-26T00:39:44.240Z,22.20
2018-04-26T00:40:15.816Z,22.18
2018-04-26T00:40:47.414Z,22.19
2018-04-26T00:41:19.107Z,22.18
2018-04-26T00:41:50.694Z,22.19
2018-04-26T00:42:22.280Z,22.19
2018-04-26T00:42:53.914Z,22.19
2018-04-26T00:43:25.505Z,22.19
2018-04-26T00:43:57.108Z,22.18
2018-04-26T00:44:28.718Z,22.19
2018-04-26T00:45:00.320Z,22.18
2018-04-26T00:45:31.902Z,22.18
2018-04-26T00:46:03.496Z,22.18
2018-04-26T00:46:35.072Z,22.17
2018-04-26T00:47:06.644Z,22.18
2018-04-26T00:47:38.236Z,22.17
2018-04-26T00:48:09.851Z,22.18
2018-04-26T00:48:41.439Z,22.17
2018-04-26T00:49:13.039Z,22.17
2018-04-26T00:49:44.612Z,22.18
2018-04-26T00:50:16.190Z,22.18
2018-04-26T00:50:47.778Z,22.17
2018-04-26T00:51:19.358Z,22.17
2018-04-26T00:51:50.966Z,22.17
2018-04-26T00:52:22.553Z,22.16
2018-04-26T00:52:54.157Z,22.17
2018-04-26T00:53:25.742Z,22.18
2018-04-26T00:53:57.325Z,22.18
2018-04-26T00:54:28.934Z,22.19
2018-04-26T00:55:00.517Z,22.19
2018-04-26T00:55:32.094Z,22.19
2018-04-26T00:56:03.701Z,22.19
2018-04-26T00:56:35.309Z,22.19
2018-04-26T00:57:06.898Z,22.19
2018-04-26T00:57:38.519Z,22.19
2018-04-26T00:58:10.097Z,22.19
2018-04-26T00:58:41.682Z,22.21
2018-04-26T00:59:13.266Z,22.21
2018-04-26T00:59:44.849Z,22.22
2018-04-26T01:00:16.445Z,22.23
2018-04-26T01:00:48.034Z,22.23
2018-04-26T01:01:19.642Z,22.24
2018-04-26T01:01:51.254Z,22.24
2018-04-26T01:02:22.853Z,22.23
2018-04-26T01:02:54.428Z,22.23
2018-04-26T01:03:26.020Z,22.21
2018-04-26T01:03:57.606Z,22.23
2018-04-26T01:04:29.176Z,22.23
2018-04-26T01:05:00.759Z,22.24
2018-04-26T01:05:32.336Z,22.22
2018-04-26T01:06:03.962Z,22.16
2018-04-26T01:06:35.560Z,22.21
2018-04-26T01:07:07.177Z,22.23
2018-04-26T01:07:38.749Z,22.22
2018-04-26T01:08:10.344Z,22.22
2018-04-26T01:08:41.950Z,22.21
2018-04-26T01:09:13.545Z,22.22
2018-04-26T01:09:45.157Z,22.22
2018-04-26T01:10:16.742Z,22.22
2018-04-26T01:10:48.320Z,22.22
2018-04-26T01:11:19.906Z,22.22
2018-04-26T01:11:51.477Z,22.22
2018-04-26T01:12:23.087Z,22.22
2018-04-26T01:12:54.669Z,22.22
2018-04-26T01:13:26.313Z,22.22
2018-04-26T01:13:57.906Z,22.22
2018-04-26T01:14:29.505Z,22.21
2018-04-26T01:15:01.084Z,22.20
2018-04-26T01:15:32.677Z,22.22
2018-04-26T01:16:04.254Z,22.22
2018-04-26T01:16:35.824Z,22.21
2018-04-26T01:17:07.402Z,22.21
2018-04-26T01:17:38.995Z,22.21
2018-04-26T01:18:10.581Z,22.21
2018-04-26T01:18:42.206Z,22.22
2018-04-26T01:19:13.798Z,22.21
2018-04-26T01:19:45.407Z,22.20
2018-04-26T01:20:17.015Z,22.19
2018-04-26T01:20:48.611Z,22.20
2018-04-26T01:21:20.220Z,22.20
2018-04-26T01:21:51.810Z,22.21
2018-04-26T01:22:23.444Z,22.21
2018-04-26T01:22:55.058Z,22.21
2018-04-26T01:23:26.678Z,22.20
2018-04-26T01:23:58.283Z,22.20
2018-04-26T01:24:29.870Z,22.20
2018-04-26T01:25:01.452Z,22.20
2018-04-26T01:25:33.034Z,22.21
2018-04-26T01:26:04.662Z,22.19
2018-04-26T01:26:36.254Z,22.19
2018-04-26T01:27:07.845Z,22.19
2018-04-26T01:27:39.427Z,22.17
2018-04-26T01:28:11.020Z,22.16
2018-04-26T01:28:42.616Z,22.17
2018-04-26T01:29:14.206Z,22.17
2018-04-26T01:29:45.786Z,22.18
2018-04-26T01:30:17.370Z,22.17
2018-04-26T01:30:48.950Z,22.17
2018-04-26T01:31:20.570Z,22.16
2018-04-26T01:31:52.178Z,22.17
2018-04-26T01:32:23.764Z,22.18
2018-04-26T01:32:55.385Z,22.18
2018-04-26T01:33:26.974Z,22.19
2018-04-26T01:33:58.561Z,22.19
2018-04-26T01:34:30.165Z,22.18
2018-04-26T01:35:01.754Z,22.18
2018-04-26T01:35:33.334Z,22.18
2018-04-26T01:36:04.982Z,22.18
2018-04-26T01:36:36.638Z,22.17
2018-04-26T01:37:08.236Z,22.18
2018-04-26T01:37:39.845Z,22.18
2018-04-26T01:38:11.429Z,22.19
2018-04-26T01:38:42.996Z,22.19
2018-04-26T01:39:14.574Z,22.20
2018-04-26T01:39:46.158Z,22.22
2018-04-26T01:40:17.745Z,22.23
2018-04-26T01:40:49.354Z,22.24
2018-04-26T01:41:20.932Z,22.24
2018-04-26T01:41:52.580Z,22.25
2018-04-26T01:42:24.166Z,22.24
2018-04-26T01:42:55.756Z,22.15
2018-04-26T01:43:27.353Z,22.25
2018-04-26T01:43:58.959Z,22.25
2018-04-26T01:44:30.542Z,22.24
2018-04-26T01:45:02.150Z,22.25
2018-04-26T01:45:33.784Z,22.24
2018-04-26T01:46:05.398Z,22.23
2018-04-26T01:46:36.989Z,22.20
2018-04-26T01:47:08.614Z,22.21
2018-04-26T01:47:40.213Z,22.21
2018-04-26T01:48:11.849Z,22.20
2018-04-26T01:48:43.478Z,22.19
2018-04-26T01:49:15.062Z,22.18
2018-04-26T01:49:46.670Z,22.18
2018-04-26T01:50:18.283Z,22.18
2018-04-26T01:50:49.890Z,22.18
2018-04-26T01:51:21.470Z,22.17
2018-04-26T01:51:53.080Z,22.20
2018-04-26T01:52:24.738Z,22.22
2018-04-26T01:52:56.366Z,22.21
2018-04-26T01:53:27.950Z,22.21
2018-04-26T01:53:59.529Z,22.21
2018-04-26T01:54:31.134Z,22.20
2018-04-26T01:55:02.723Z,22.23
2018-04-26T01:55:34.316Z,22.20
2018-04-26T01:56:05.888Z,22.20
2018-04-26T01:56:37.464Z,22.21
2018-04-26T01:57:09.036Z,22.21
2018-04-26T01:57:40.679Z,22.21
2018-04-26T01:58:12.270Z,22.19
2018-04-26T01:58:43.874Z,22.21
2018-04-26T01:59:15.456Z,22.21
2018-04-26T01:59:47.053Z,22.20
2018-04-26T02:00:18.710Z,22.20
2018-04-26T02:00:50.292Z,22.19
2018-04-26T02:01:21.895Z,22.20
2018-04-26T02:01:53.516Z,22.20
2018-04-26T02:02:25.130Z,22.19
2018-04-26T02:02:56.728Z,22.19
2018-04-26T02:03:28.347Z,22.19
2018-04-26T02:03:59.944Z,22.19
2018-04-26T02:04:31.553Z,22.19
2018-04-26T02:05:03.148Z,22.19
2018-04-26T02:05:34.777Z,22.18
2018-04-26T02:06:06.382Z,22.17
2018-04-26T02:06:38.026Z,22.17
2018-04-26T02:07:09.610Z,22.16
2018-04-26T02:07:41.190Z,22.17
2018-04-26T02:08:12.770Z,22.16
2018-04-26T02:08:44.364Z,22.17
2018-04-26T02:09:15.950Z,22.17
2018-04-26T02:09:47.533Z,22.17
2018-04-26T02:10:19.120Z,22.17
2018-04-26T02:10:50.712Z,22.18
2018-04-26T02:11:22.318Z,22.17
2018-04-26T02:11:53.906Z,22.18
2018-04-26T02:12:25.500Z,22.18
2018-04-26T02:12:57.097Z,22.17
2018-04-26T02:13:28.706Z,22.17
2018-04-26T02:14:00.284Z,22.17
2018-04-26T02:14:31.910Z,22.17
2018-04-26T02:15:03.513Z,22.17
2018-04-26T02:15:35.122Z,22.17
2018-04-26T02:16:06.706Z,22.18
2018-04-26T02:16:38.290Z,22.17
2018-04-26T02:17:09.874Z,22.18
2018-04-26T02:17:41.450Z,22.17
2018-04-26T02:18:13.046Z,22.15
2018-04-26T02:18:44.640Z,22.16
2018-04-26T02:19:16.290Z,22.16
2018-04-26T02:19:47.893Z,22.15
2018-04-26T02:20:19.500Z,22.15
2018-04-26T02:20:51.110Z,22.15
2018-04-26T02:21:22.762Z,22.14
2018-04-26T02:21:54.341Z,22.13
2018-04-26T02:22:25.929Z,22.13
2018-04-26T02:22:57.501Z,22.15
2018-04-26T02:23:29.117Z,22.14
2018-04-26T02:24:00.740Z,22.14
2018-04-26T02:24:32.330Z,22.14
2018-04-26T02:25:03.925Z,22.15
2018-04-26T02:25:35.500Z,22.16
2018-04-26T02:26:07.081Z,22.12
2018-04-26T02:26:38.730Z,22.14
2018-04-26T02:27:10.339Z,22.14
2018-04-26T02:27:41.930Z,22.13
2018-04-26T02:28:13.533Z,22.11
2018-04-26T02:28:45.149Z,22.13
2018-04-26T02:29:16.747Z,22.13
2018-04-26T02:29:48.362Z,22.11
2018-04-26T02:30:19.956Z,22.13
2018-04-26T02:30:51.566Z,22.13
2018-04-26T02:31:23.181Z,22.11
2018-04-26T02:31:54.766Z,22.14
2018-04-26T02:32:26.341Z,22.14
2018-04-26T02:32:57.942Z,22.14
2018-04-26T02:33:29.570Z,22.16
2018-04-26T02:34:01.169Z,22.15
2018-04-26T02:34:32.754Z,22.14
2018-04-26T02:35:04.362Z,22.14
2018-04-26T02:35:35.990Z,22.13
2018-04-26T02:36:07.572Z,22.14
2018-04-26T02:36:39.164Z,22.14
2018-04-26T02:37:10.766Z,22.14
2018-04-26T02:37:42.338Z,22.14
2018-04-26T02:38:13.981Z,22.20
2018-04-26T02:38:45.561Z,22.28
2018-04-26T02:39:17.171Z,22.34
2018-04-26T02:39:48.758Z,22.36
2018-04-26T02:40:20.367Z,22.32
2018-04-26T02:40:51.971Z,22.32
2018-04-26T02:41:23.574Z,22.30
2018-04-26T02:41:55.202Z,22.29
2018-04-26T02:42:26.806Z,22.27
2018-04-26T02:42:58.386Z,22.26
2018-04-26T02:43:29.982Z,22.25
2018-04-26T02:44:01.556Z,22.22
2018-04-26T02:44:33.182Z,22.20
2018-04-26T02:45:04.801Z,22.17
2018-04-26T02:45:36.395Z,22.16
2018-04-26T02:46:07.993Z,22.14
2018-04-26T02:46:39.693Z,22.12
2018-04-26T02:47:11.270Z,22.07
2018-04-26T02:47:42.865Z,22.08
2018-04-26T02:48:14.573Z,22.07
2018-04-26T02:48:46.144Z,22.06
2018-04-26T02:49:17.749Z,22.04
2018-04-26T02:49:49.338Z,22.03
2018-04-26T02:50:20.943Z,22.02
2018-04-26T02:50:52.557Z,22.00
2018-04-26T02:51:24.181Z,21.99
2018-04-26T02:51:55.796Z,22.01
2018-04-26T02:52:27.420Z,22.03
2018-04-26T02:52:58.998Z,22.06
2018-04-26T02:53:30.586Z,22.10
2018-04-26T02:54:02.165Z,22.13
2018-04-26T02:54:33.761Z,22.18
2018-04-26T02:55:05.344Z,22.24
2018-04-26T02:55:36.927Z,22.26
2018-04-26T02:56:08.521Z,22.26
2018-04-26T02:56:40.126Z,22.24
2018-04-26T02:57:11.794Z,22.21
2018-04-26T02:57:43.373Z,22.17
2018-04-26T02:58:14.983Z,22.15
2018-04-26T02:58:46.597Z,22.12
2018-04-26T02:59:18.211Z,22.09
2018-04-26T02:59:49.797Z,22.04
2018-04-26T03:00:21.387Z,22.01
2018-04-26T03:00:52.956Z,21.98
2018-04-26T03:01:24.566Z,21.97
2018-04-26T03:01:56.149Z,21.97
2018-04-26T03:02:27.774Z,21.95
2018-04-26T03:02:59.353Z,21.93
2018-04-26T03:03:30.924Z,21.91
2018-04-26T03:04:02.516Z,21.89
2018-04-26T03:04:34.098Z,21.87
2018-04-26T03:05:05.692Z,21.85
2018-04-26T03:05:37.301Z,21.83
2018-04-26T03:06:08.873Z,21.81
2018-04-26T03:06:40.546Z,21.80
2018-04-26T03:07:12.134Z,21.79
2018-04-26T03:07:43.745Z,21.78
2018-04-26T03:08:15.388Z,21.77
2018-04-26T03:08:47.001Z,21.76
2018-04-26T03:09:18.594Z,21.76
2018-04-26T03:09:50.169Z,21.75
2018-04-26T03:10:21.774Z,21.74
2018-04-26T03:10:53.363Z,21.74
2018-04-26T03:11:24.956Z,21.72
2018-04-26T03:11:56.567Z,21.72
2018-04-26T03:12:28.144Z,21.71
2018-04-26T03:12:59.750Z,21.71
2018-04-26T03:13:31.358Z,21.70
2018-04-26T03:14:02.952Z,21.69
2018-04-26T03:14:34.538Z,21.69
2018-04-26T03:15:06.133Z,21.69
2018-04-26T03:15:37.822Z,21.68
2018-04-26T03:16:09.472Z,21.68
2018-04-26T03:16:41.072Z,21.67
2018-04-26T03:17:12.682Z,21.66
2018-04-26T03:17:44.281Z,21.66
2018-04-26T03:18:15.856Z,21.65
2018-04-26T03:18:47.452Z,21.62
2018-04-26T03:19:19.028Z,21.64
2018-04-26T03:19:50.614Z,21.64
2018-04-26T03:20:22.194Z,21.64
2018-04-26T03:20:53.799Z,21.63
2018-04-26T03:21:25.426Z,21.63
2018-04-26T03:21:57.010Z,21.62
2018-04-26T03:22:28.593Z,21.62
2018-04-26T03:23:00.225Z,21.61
2018-04-26T03:23:31.830Z,21.61
2018-04-26T03:24:03.413Z,21.61
2018-04-26T03:24:35.012Z,21.61
2018-04-26T03:25:06.618Z,21.60
2018-04-26T03:25:38.214Z,21.60
2018-04-26T03:26:09.798Z,21.60
2018-04-26T03:26:41.386Z,21.59
2018-04-26T03:27:12.982Z,21.59
2018-04-26T03:27:44.574Z,21.58
2018-04-26T03:28:16.225Z,21.58
2018-04-26T03:28:47.837Z,21.58
2018-04-26T03:29:19.422Z,21.57
2018-04-26T03:29:51.025Z,21.56
2018-04-26T03:30:22.600Z,21.55
2018-04-26T03:30:54.265Z,21.55
2018-04-26T03:31:25.796Z,21.54
2018-04-26T03:31:57.455Z,21.54
2018-04-26T03:32:29.041Z,21.54
2018-04-26T03:33:00.626Z,21.54
2018-04-26T03:33:32.210Z,21.53
2018-04-26T03:34:03.818Z,21.53
2018-04-26T03:34:35.402Z,21.51
2018-04-26T03:35:07.003Z,21.53
2018-04-26T03:35:38.586Z,21.53
2018-04-26T03:36:10.176Z,21.52
2018-04-26T03:36:41.806Z,21.52
2018-04-26T03:37:13.398Z,21.51
2018-04-26T03:37:44.997Z,21.51
2018-04-26T03:38:16.611Z,21.51
2018-04-26T03:38:48.197Z,21.51
2018-04-26T03:39:19.781Z,21.51
2018-04-26T03:39:51.414Z,21.50
2018-04-26T03:40:23.013Z,21.49
2018-04-26T03:40:54.609Z,21.50
2018-04-26T03:41:26.214Z,21.49
2018-04-26T03:41:57.784Z,21.49
2018-04-26T03:42:29.377Z,21.49
2018-04-26T03:43:00.987Z,21.49
2018-04-26T03:43:32.585Z,21.48
2018-04-26T03:44:04.177Z,21.47
2018-04-26T03:44:35.765Z,21.47
2018-04-26T03:45:07.414Z,21.46
2018-04-26T03:45:39.026Z,21.47
2018-04-26T03:46:10.634Z,21.47
2018-04-26T03:46:42.242Z,21.46
2018-04-26T03:47:13.840Z,21.46
2018-04-26T03:47:45.437Z,21.44
2018-04-26T03:48:17.046Z,21.45
2018-04-26T03:48:48.648Z,21.44
2018-04-26T03:49:20.244Z,21.46
2018-04-26T03:49:51.835Z,21.45
2018-04-26T03:50:23.463Z,21.45
2018-04-26T03:50:55.067Z,21.45
2018-04-26T03:51:26.658Z,21.44
2018-04-26T03:51:58.237Z,21.44
2018-04-26T03:52:29.822Z,21.44
2018-04-26T03:53:01.407Z,21.44
2018-04-26T03:53:32.988Z,21.44
2018-04-26T03:54:04.593Z,21.44
2018-04-26T03:54:36.201Z,21.43
2018-04-26T03:55:07.789Z,21.43
2018-04-26T03:55:39.404Z,21.43
2018-04-26T03:56:11.031Z,21.43
2018-04-26T03:56:42.638Z,21.43
2018-04-26T03:57:14.241Z,21.42
2018-04-26T03:57:45.826Z,21.42
2018-04-26T03:58:17.419Z,21.40
2018-04-26T03:58:49.050Z,21.42
2018-04-26T03:59:20.653Z,21.41
2018-04-26T03:59:52.264Z,21.41
2018-04-26T04:00:23.844Z,21.41
2018-04-26T04:00:55.489Z,21.41
2018-04-26T04:01:27.140Z,21.41
2018-04-26T04:01:58.754Z,21.39
2018-04-26T04:02:30.378Z,21.40
2018-04-26T04:03:01.956Z,21.40
2018-04-26T04:03:33.557Z,21.40
2018-04-26T04:04:05.152Z,21.39
2018-04-26T04:04:36.728Z,21.39
2018-04-26T04:05:08.331Z,21.39
2018-04-26T04:05:39.942Z,21.39
2018-04-26T04:06:11.565Z,21.39
2018-04-26T04:06:43.331Z,21.39
2018-04-26T04:07:14.946Z,21.39
2018-04-26T04:07:46.549Z,21.38
2018-04-26T04:08:18.144Z,21.38
2018-04-26T04:08:49.724Z,21.38
2018-04-26T04:09:21.292Z,21.37
2018-04-26T04:09:52.885Z,21.37
2018-04-26T04:10:24.497Z,21.37
2018-04-26T04:10:56.101Z,21.36
2018-04-26T04:11:27.706Z,21.37
2018-04-26T04:11:59.316Z,21.36
2018-04-26T04:12:30.923Z,21.37
2018-04-26T04:13:02.552Z,21.36
2018-04-26T04:13:34.132Z,21.35
2018-04-26T04:14:05.713Z,21.35
2018-04-26T04:14:37.284Z,21.35
2018-04-26T04:15:08.890Z,21.35
2018-04-26T04:15:40.464Z,21.36
2018-04-26T04:16:12.046Z,21.33
2018-04-26T04:16:43.651Z,21.35
2018-04-26T04:17:15.253Z,21.35
2018-04-26T04:17:46.834Z,21.36
2018-04-26T04:18:18.485Z,21.35
2018-04-26T04:18:50.056Z,21.35
2018-04-26T04:19:21.645Z,21.35
2018-04-26T04:19:53.242Z,21.35
2018-04-26T04:20:24.850Z,21.35
2018-04-26T04:20:56.445Z,21.35
2018-04-26T04:21:28.047Z,21.35
2018-04-26T04:21:59.698Z,21.35
2018-04-26T04:22:31.311Z,21.35
2018-04-26T04:23:02.914Z,21.35
2018-04-26T04:23:34.566Z,21.36
2018-04-26T04:24:06.159Z,21.36
2018-04-26T04:24:37.826Z,21.35
2018-04-26T04:25:09.438Z,21.35
2018-04-26T04:25:41.050Z,21.24
2018-04-26T04:26:12.653Z,21.35
2018-04-26T04:26:44.248Z,21.33
2018-04-26T04:27:15.869Z,21.35
2018-04-26T04:27:47.468Z,21.35
2018-04-26T04:28:19.074Z,21.34
2018-04-26T04:28:50.681Z,21.34
2018-04-26T04:29:22.253Z,21.34
2018-04-26T04:29:53.890Z,21.34
2018-04-26T04:30:25.470Z,21.35
2018-04-26T04:30:57.078Z,21.34
2018-04-26T04:31:28.656Z,21.34
2018-04-26T04:32:00.250Z,21.34
2018-04-26T04:32:31.842Z,21.35
2018-04-26T04:33:03.437Z,21.35
2018-04-26T04:33:35.026Z,21.34
2018-04-26T04:34:06.604Z,21.33
2018-04-26T04:34:38.244Z,21.33
2018-04-26T04:35:09.826Z,21.34
2018-04-26T04:35:41.410Z,21.34
2018-04-26T04:36:12.997Z,21.34
2018-04-26T04:36:44.580Z,21.34
2018-04-26T04:37:16.186Z,21.34
2018-04-26T04:37:47.802Z,21.34
2018-04-26T04:38:19.418Z,21.34
2018-04-26T04:38:51.005Z,21.34
2018-04-26T04:39:22.613Z,21.34
2018-04-26T04:39:54.270Z,21.34
2018-04-26T04:40:25.856Z,21.35
2018-04-26T04:40:57.458Z,21.35
2018-04-26T04:41:29.096Z,21.35
2018-04-26T04:42:00.687Z,21.36
2018-04-26T04:42:32.256Z,21.36
2018-04-26T04:43:03.832Z,21.36
2018-04-26T04:43:35.434Z,21.37
2018-04-26T04:44:07.043Z,21.37
2018-04-26T04:44:38.649Z,21.37
2018-04-26T04:45:10.251Z,21.38
2018-04-26T04:45:41.874Z,21.38
2018-04-26T04:46:13.463Z,21.38
2018-04-26T04:46:45.056Z,21.38
2018-04-26T04:47:16.666Z,21.39
2018-04-26T04:47:48.254Z,21.39
2018-04-26T04:48:19.926Z,21.40
2018-04-26T04:48:51.510Z,21.41
2018-04-26T04:49:23.113Z,21.41
2018-04-26T04:49:54.722Z,21.41
2018-04-26T04:50:26.333Z,21.42
2018-04-26T04:50:57.932Z,21.43
2018-04-26T04:51:29.527Z,21.42
2018-04-26T04:52:01.134Z,21.44
2018-04-26T04:52:32.732Z,21.44
2018-04-26T04:53:04.338Z,21.44
2018-04-26T04:53:35.974Z,21.45
2018-04-26T04:54:07.585Z,21.45
2018-04-26T04:54:39.184Z,21.45
2018-04-26T04:55:10.792Z,21.46
2018-04-26T04:55:42.406Z,21.45
2018-04-26T04:56:13.993Z,21.48
2018-04-26T04:56:45.577Z,21.49
2018-04-26T04:57:17.149Z,21.49
2018-04-26T04:57:48.762Z,21.49
2018-04-26T04:58:20.370Z,21.49
2018-04-26T04:58:52.018Z,21.50
2018-04-26T04:59:23.625Z,21.50
2018-04-26T04:59:55.233Z,21.49
2018-04-26T05:00:26.837Z,21.50
2018-04-26T05:00:58.442Z,21.50
2018-04-26T05:01:30.026Z,21.51
2018-04-26T05:02:01.698Z,21.51
2018-04-26T05:02:33.227Z,21.51
2018-04-26T05:03:04.813Z,21.51
2018-04-26T05:03:36.414Z,21.50
2018-04-26T05:04:08.002Z,21.50
2018-04-26T05:04:39.611Z,21.50
2018-04-26T05:05:11.222Z,21.50
2018-04-26T05:05:42.814Z,21.50
2018-04-26T05:06:14.419Z,21.49
2018-04-26T05:06:46.025Z,21.48
2018-04-26T05:07:17.661Z,21.49
2018-04-26T05:07:49.292Z,21.50
2018-04-26T05:08:20.939Z,21.49
2018-04-26T05:08:52.521Z,21.49
2018-04-26T05:09:24.102Z,21.48
2018-04-26T05:09:55.686Z,21.48
2018-04-26T05:10:27.289Z,21.48
2018-04-26T05:10:58.941Z,21.46
2018-04-26T05:11:30.530Z,21.45
2018-04-26T05:12:02.144Z,21.43
2018-04-26T05:12:33.750Z,21.43
2018-04-26T05:13:05.344Z,21.44
2018-04-26T05:13:36.957Z,21.43
2018-04-26T05:14:08.540Z,21.42
2018-04-26T05:14:40.126Z,21.41
2018-04-26T05:15:11.704Z,21.41
2018-04-26T05:15:43.330Z,21.40
2018-04-26T05:16:14.934Z,21.40
2018-04-26T05:16:46.509Z,21.39
2018-04-26T05:17:18.088Z,21.39
2018-04-26T05:17:49.656Z,21.38
2018-04-26T05:18:21.262Z,21.38
2018-04-26T05:18:52.856Z,21.37
2018-04-26T05:19:24.467Z,21.37
2018-04-26T05:19:56.058Z,21.37
2018-04-26T05:20:27.642Z,21.36
2018-04-26T05:20:59.226Z,21.36
2018-04-26T05:21:30.830Z,21.35
2018-04-26T05:22:02.418Z,21.35
2018-04-26T05:22:34.029Z,21.34
2018-04-26T05:23:05.616Z,21.34
2018-04-26T05:23:37.202Z,21.35
2018-04-26T05:24:08.776Z,21.33
2018-04-26T05:24:40.429Z,21.33
2018-04-26T05:25:12.034Z,21.32
2018-04-26T05:25:43.655Z,21.33
2018-04-26T05:26:15.257Z,21.33
2018-04-26T05:26:46.858Z,21.32
2018-04-26T05:27:18.436Z,21.32
2018-04-26T05:27:50.018Z,21.32
2018-04-26T05:28:21.622Z,21.31
2018-04-26T05:28:53.230Z,21.20
2018-04-26T05:29:24.826Z,21.31
2018-04-26T05:29:56.561Z,21.31
2018-04-26T05:30:28.134Z,21.30
2018-04-26T05:30:59.727Z,21.30
2018-04-26T05:31:31.325Z,21.30
2018-04-26T05:32:02.934Z,21.30
2018-04-26T05:32:34.574Z,21.29
2018-04-26T05:33:06.218Z,21.29
2018-04-26T05:33:37.858Z,21.29
2018-04-26T05:34:09.465Z,21.29
2018-04-26T05:34:41.050Z,21.28
2018-04-26T05:35:12.639Z,21.28
2018-04-26T05:35:44.233Z,21.27
2018-04-26T05:36:15.809Z,21.27
2018-04-26T05:36:47.394Z,21.27
2018-04-26T05:37:18.966Z,21.27
2018-04-26T05:37:50.560Z,21.27
2018-04-26T05:38:22.186Z,21.26
2018-04-26T05:38:53.780Z,21.27
2018-04-26T05:39:25.376Z,21.26
2018-04-26T05:39:56.962Z,21.25
2018-04-26T05:40:28.581Z,21.26
2018-04-26T05:41:00.202Z,21.24
2018-04-26T05:41:31.806Z,21.24
2018-04-26T05:42:03.397Z,21.23
2018-04-26T05:42:34.982Z,21.23
2018-04-26T05:43:06.634Z,21.22
2018-04-26T05:43:38.223Z,21.22
2018-04-26T05:44:09.874Z,21.22
2018-04-26T05:44:41.456Z,21.21
2018-04-26T05:45:13.037Z,21.21
2018-04-26T05:45:44.604Z,21.20
2018-04-26T05:46:16.206Z,21.20
2018-04-26T05:46:47.776Z,21.20
2018-04-26T05:47:19.376Z,21.19
2018-04-26T05:47:50.983Z,21.19
2018-04-26T05:48:22.585Z,21.19
2018-04-26T05:48:54.194Z,21.16
2018-04-26T05:49:25.786Z,21.20
2018-04-26T05:49:57.352Z,21.18
2018-04-26T05:50:28.968Z,21.19
2018-04-26T05:51:00.575Z,21.19
2018-04-26T05:51:32.177Z,21.19
2018-04-26T05:52:03.772Z,21.18
2018-04-26T05:52:35.377Z,21.18
2018-04-26T05:53:06.974Z,21.18
2018-04-26T05:53:38.573Z,21.17
2018-04-26T05:54:10.183Z,21.16
2018-04-26T05:54:41.807Z,21.17
2018-04-26T05:55:13.400Z,21.16
2018-04-26T05:55:45.074Z,21.17
2018-04-26T05:56:16.638Z,21.17
2018-04-26T05:56:48.245Z,21.16
2018-04-26T05:57:19.858Z,21.16
2018-04-26T05:57:51.462Z,21.16
2018-04-26T05:58:23.109Z,21.16
2018-04-26T05:58:54.722Z,21.15
2018-04-26T05:59:26.325Z,21.15
2018-04-26T05:59:57.933Z,21.15
2018-04-26T06:00:29.545Z,21.15
2018-04-26T06:01:01.130Z,21.15
2018-04-26T06:01:32.725Z,21.15
2018-04-26T06:02:04.325Z,21.15
2018-04-26T06:02:35.900Z,21.14
2018-04-26T06:03:07.540Z,21.14
2018-04-26T06:03:39.143Z,21.14
2018-04-26T06:04:10.729Z,21.14
2018-04-26T06:04:42.308Z,21.14
2018-04-26T06:05:13.894Z,21.13
2018-04-26T06:05:45.474Z,21.13
2018-04-26T06:06:17.069Z,21.13
2018-04-26T06:06:48.678Z,21.13
2018-04-26T06:07:20.285Z,21.12
2018-04-26T06:07:51.870Z,21.12
2018-04-26T06:08:23.493Z,21.12
2018-04-26T06:08:55.082Z,21.12
2018-04-26T06:09:26.688Z,21.11
2018-04-26T06:09:58.283Z,21.11
2018-04-26T06:10:29.898Z,21.11
2018-04-26T06:11:01.482Z,21.12
2018-04-26T06:11:33.097Z,21.09
2018-04-26T06:12:04.709Z,21.11
2018-04-26T06:12:36.312Z,21.10
2018-04-26T06:13:07.930Z,21.10
2018-04-26T06:13:39.570Z,21.10
2018-04-26T06:14:11.178Z,21.11
2018-04-26T06:14:42.842Z,21.10
2018-04-26T06:15:14.451Z,21.09
2018-04-26T06:15:46.029Z,21.10
2018-04-26T06:16:17.614Z,21.09
2018-04-26T06:16:49.220Z,21.08
2018-04-26T06:17:20.816Z,21.08
2018-04-26T06:17:52.449Z,21.08
2018-04-26T06:18:24.053Z,21.09
2018-04-26T06:18:55.642Z,21.08
2018-04-26T06:19:27.276Z,21.07
2018-04-26T06:19:58.858Z,21.09
2018-04-26T06:20:30.428Z,21.08
2018-04-26T06:21:02.011Z,21.08
2018-04-26T06:21:33.589Z,21.08
2018-04-26T06:22:05.190Z,21.07
2018-04-26T06:22:36.779Z,21.08
2018-04-26T06:23:08.386Z,21.07
2018-04-26T06:23:40.024Z,21.07
2018-04-26T06:24:11.632Z,21.07
2018-04-26T06:24:43.222Z,21.07
2018-04-26T06:25:14.796Z,21.06
2018-04-26T06:25:46.378Z,21.07
2018-04-26T06:26:17.961Z,21.06
2018-04-26T06:26:49.532Z,21.06
2018-04-26T06:27:21.118Z,21.06
2018-04-26T06:27:52.722Z,21.06
2018-04-26T06:28:24.360Z,21.06
2018-04-26T06:28:55.952Z,21.05
2018-04-26T06:29:27.557Z,21.06
2018-04-26T06:29:59.142Z,21.06
2018-04-26T06:30:30.792Z,21.06
2018-04-26T06:31:02.443Z,21.06
2018-04-26T06:31:34.001Z,21.05
2018-04-26T06:32:05.597Z,21.05
2018-04-26T06:32:37.182Z,21.05
2018-04-26T06:33:08.776Z,21.05
2018-04-26T06:33:40.372Z,21.05
2018-04-26T06:34:11.986Z,21.05
2018-04-26T06:34:43.626Z,21.05
2018-04-26T06:35:15.210Z,21.06
2018-04-26T06:35:46.788Z,21.05
2018-04-26T06:36:18.377Z,21.06
2018-04-26T06:36:50.086Z,21.06
2018-04-26T06:37:21.674Z,21.04
2018-04-26T06:37:53.244Z,21.06
2018-04-26T06:38:24.812Z,21.07
2018-04-26T06:38:56.430Z,21.07
2018-04-26T06:39:28.030Z,21.07
2018-04-26T06:39:59.606Z,21.06
2018-04-26T06:40:31.190Z,21.07
2018-04-26T06:41:02.774Z,21.07
2018-04-26T06:41:34.387Z,21.07
2018-04-26T06:42:06.005Z,21.07
2018-04-26T06:42:37.596Z,21.07
2018-04-26T06:43:09.172Z,21.07
2018-04-26T06:43:40.778Z,21.06
2018-04-26T06:44:12.391Z,21.07
2018-04-26T06:44:44.006Z,21.06
2018-04-26T06:45:15.614Z,21.07
2018-04-26T06:45:47.230Z,21.06
2018-04-26T06:46:18.823Z,21.06
2018-04-26T06:46:50.410Z,21.06